M I D A S
Marine Information and Data Acquisition System
Tripno 1188 of the Zeeleeuw from 2006-11-23 08:00:51 to 2006-11-23 12:56:23
Back to CruiseResearch ActivitiesStationsMapUnderway DataData graphs

EquipmentUnitsComments
TimeDGPSUTC
LatitudeDGPSDM.mWGS84
LongitudeDGPSDM.mWGS84
SpeedMeteo Stationm/sRelative wind speed
DirectionMeteo StationdegRelative wind direction
TemperatureMeteo Stationdeg CelciusAir temperature
PressureMeteo StationPaAtmospheric pressure
HumidityMeteo Station%Relative humidity
Missing or incorrect values are displayed as -999
Metereological data collected by the RV Zeeleeuw from 2006-11-23 08:01:19 to 2006-11-23 13:12:53
                                                                                    Next 1000 lines
Time Latitude Longitude Speed Direction Temperature Pressure Humidity
2006-11-23 08:01:29 51°13.598 2°56.09 5.4 7 12.9 98410 99
2006-11-23 08:01:34 51°13.599 2°56.087 3.6 4 12.9 98410 99
2006-11-23 08:01:39 51°13.6 2°56.082 2.7 25 12.9 98420 99
2006-11-23 08:01:44 51°13.601 2°56.078 4.5 28 12.9 98420 99
2006-11-23 08:01:49 51°13.602 2°56.073 3 19 12.9 98420 99
2006-11-23 08:01:55 51°13.604 2°56.066 2.5 35 12.9 98420 99
2006-11-23 08:01:59 51°13.605 2°56.061 1.5 22 12.9 98420 99
2006-11-23 08:02:05 51°13.607 2°56.053 4 17 12.9 98420 99
2006-11-23 08:02:09 51°13.609 2°56.048 4.8 21 12.9 98420 99
2006-11-23 08:02:15 51°13.611 2°56.039 4.3 17 12.9 98420 99
2006-11-23 08:02:19 51°13.612 2°56.033 4.5 20 12.9 98420 99
2006-11-23 08:02:25 51°13.615 2°56.024 4.1 28 12.9 98420 99
2006-11-23 08:02:29 51°13.617 2°56.016 3.3 25 12.9 98420 99
2006-11-23 08:02:34 51°13.619 2°56.007 4.4 44 12.9 98420 99
2006-11-23 08:02:39 51°13.621 2°55.998 3.2 30 12.9 98420 99
2006-11-23 08:02:45 51°13.623 2°55.986 4.4 36 12.9 98420 99
2006-11-23 08:02:49 51°13.625 2°55.978 5.7 36 12.9 98420 99
2006-11-23 08:02:55 51°13.628 2°55.966 4.3 32 12.9 98420 99
2006-11-23 08:02:59 51°13.63 2°55.958 3.4 30 12.9 98420 99
2006-11-23 08:03:05 51°13.633 2°55.945 3.6 28 12.9 98420 99
2006-11-23 08:03:10 51°13.636 2°55.935 2.4 22 12.9 98420 99
2006-11-23 08:03:15 51°13.639 2°55.925 2.8 27 12.9 98420 99
2006-11-23 08:03:19 51°13.641 2°55.917 3.1 2 12.9 98420 99
2006-11-23 08:03:25 51°13.645 2°55.905 3.1 58 12.9 98420 99
2006-11-23 08:03:29 51°13.648 2°55.897 2.6 28 12.9 98420 99
2006-11-23 08:03:35 51°13.652 2°55.886 3.5 57 12.9 98420 99
2006-11-23 08:03:39 51°13.654 2°55.878 5.9 31 12.9 98430 99
2006-11-23 08:03:43 51°13.657 2°55.871 5.3 30 12.9 98430 99
2006-11-23 08:03:47 51°13.66 2°55.864 3.3 35 12.9 98430 98
2006-11-23 08:03:54 51°13.665 2°55.852 3.9 28 12.9 98430 98
2006-11-23 08:03:59 51°13.669 2°55.844 3.4 20 12.9 98430 98
2006-11-23 08:04:04 51°13.673 2°55.836 3.3 35 12.9 98430 98
2006-11-23 08:04:09 51°13.677 2°55.827 6 20 12.9 98420 98
2006-11-23 08:04:15 51°13.682 2°55.817 6.3 27 12.9 98420 98
2006-11-23 08:04:19 51°13.685 2°55.81 5.1 25 12.9 98420 98
2006-11-23 08:04:25 51°13.69 2°55.8 6.7 16 12.9 98420 98
2006-11-23 08:04:29 51°13.694 2°55.794 5.6 19 12.9 98420 98
2006-11-23 08:04:34 51°13.698 2°55.785 5 25 12.9 98420 98
2006-11-23 08:04:39 51°13.703 2°55.776 4.5 28 12.9 98420 99
2006-11-23 08:04:45 51°13.707 2°55.766 3.9 12 12.9 98420 99
2006-11-23 08:04:49 51°13.71 2°55.76 3.7 13 12.9 98420 99
2006-11-23 08:04:55 51°13.714 2°55.751 4.1 20 12.9 98420 99
2006-11-23 08:04:59 51°13.716 2°55.744 3.4 5 12.9 98420 98
2006-11-23 08:05:03 51°13.718 2°55.739 4.7 11 12.9 98420 98
2006-11-23 08:05:09 51°13.721 2°55.732 2.5 25 12.9 98420 98
2006-11-23 08:05:14 51°13.722 2°55.728 4.4 14 12.9 98420 98
2006-11-23 08:05:19 51°13.722 2°55.728 3.6 16 12.9 98420 98
2006-11-23 08:05:23 51°13.723 2°55.728 3.7 24 12.9 98420 98
2006-11-23 08:05:29 51°13.723 2°55.729 4.7 14 12.9 98420 98
2006-11-23 08:05:34 51°13.724 2°55.73 3.6 24 12.9 98420 98
2006-11-23 08:05:38 51°13.724 2°55.732 4.1 28 13 98420 98
2006-11-23 08:05:44 51°13.725 2°55.734 5.3 358 13 98420 98
2006-11-23 08:05:49 51°13.726 2°55.737 7.5 29 13 98420 99
2006-11-23 08:05:54 51°13.727 2°55.739 5.4 16 13 98420 99
2006-11-23 08:05:59 51°13.729 2°55.742 3.4 23 13 98420 98
2006-11-23 08:06:04 51°13.73 2°55.744 4.8 55 13 98420 98
2006-11-23 08:06:09 51°13.732 2°55.745 5.7 37 13 98410 98
2006-11-23 08:06:14 51°13.733 2°55.746 6.7 38 13 98410 98
2006-11-23 08:06:19 51°13.734 2°55.745 6 42 13 98420 98
2006-11-23 08:06:24 51°13.734 2°55.744 4.5 50 13 98420 98
2006-11-23 08:06:29 51°13.734 2°55.743 4.6 26 13 98420 98
2006-11-23 08:06:34 51°13.733 2°55.741 3.7 52 13 98420 98
2006-11-23 08:06:39 51°13.731 2°55.739 4.4 28 13 98410 98
2006-11-23 08:06:43 51°13.729 2°55.737 6.9 52 13 98410 98
2006-11-23 08:06:49 51°13.727 2°55.734 5.1 21 13 98420 99
2006-11-23 08:06:55 51°13.724 2°55.731 5.5 50 13 98420 99
2006-11-23 08:07:00 51°13.723 2°55.728 4.2 24 13 98410 99
2006-11-23 08:07:05 51°13.721 2°55.727 5.8 56 13 98410 99
2006-11-23 08:07:09 51°13.721 2°55.726 4.4 19 13 98410 99
2006-11-23 08:07:14 51°13.721 2°55.725 3.7 51 13 98410 99
2006-11-23 08:07:19 51°13.722 2°55.725 3.5 21 13 98410 99
2006-11-23 08:07:23 51°13.723 2°55.725 1.9 53 13 98410 99
2006-11-23 08:07:29 51°13.726 2°55.724 2.9 27 13 98410 98
2006-11-23 08:07:34 51°13.728 2°55.723 4.1 53 13 98410 98
2006-11-23 08:07:39 51°13.731 2°55.721 2.4 28 13 98420 98
2006-11-23 08:07:44 51°13.735 2°55.718 3.2 59 13 98420 98
2006-11-23 08:07:49 51°13.738 2°55.715 3.1 22 13.1 98410 98
2006-11-23 08:07:54 51°13.743 2°55.71 1.5 54 13.1 98410 98
2006-11-23 08:07:59 51°13.747 2°55.705 1.2 26 13.1 98420 98
2006-11-23 08:08:03 51°13.752 2°55.701 0.6 10 13.1 98420 98
2006-11-23 08:08:09 51°13.759 2°55.694 0.4 43 13.1 98410 98
2006-11-23 08:08:14 51°13.765 2°55.689 1.2 58 13.1 98410 98
2006-11-23 08:08:19 51°13.772 2°55.683 1.8 265 13.1 98410 98
2006-11-23 08:08:24 51°13.779 2°55.677 1.1 312 13.1 98410 98
2006-11-23 08:08:29 51°13.786 2°55.671 1.2 24 13.1 98410 98
2006-11-23 08:08:33 51°13.792 2°55.665 2.4 306 13.1 98410 98
2006-11-23 08:08:39 51°13.802 2°55.657 2.2 26 13.1 98410 98
2006-11-23 08:08:44 51°13.81 2°55.651 1.3 38 13.1 98410 98
2006-11-23 08:08:49 51°13.819 2°55.644 0.9 27 13.1 98410 98
2006-11-23 08:08:54 51°13.827 2°55.637 1.1 325 13.1 98410 98
2006-11-23 08:08:59 51°13.836 2°55.631 0.8 22 13.1 98410 98
2006-11-23 08:09:03 51°13.843 2°55.625 1.8 305 13.1 98410 98
2006-11-23 08:09:09 51°13.854 2°55.617 2.5 260 13.1 98420 98
2006-11-23 08:09:14 51°13.863 2°55.611 1.3 56 13.1 98420 98
2006-11-23 08:09:19 51°13.872 2°55.604 0.8 24 13.1 98420 98
2006-11-23 08:09:24 51°13.881 2°55.597 0.6 325 13.1 98420 98
2006-11-23 08:09:29 51°13.89 2°55.59 0.5 334 13.1 98420 98
2006-11-23 08:09:34 51°13.899 2°55.583 1.2 306 13.1 98420 98
2006-11-23 08:09:39 51°13.908 2°55.576 2.1 322 13.1 98420 98
2006-11-23 08:09:44 51°13.917 2°55.569 2.8 303 13.1 98420 98
2006-11-23 08:09:49 51°13.926 2°55.562 2.9 25 13.1 98410 98
2006-11-23 08:09:54 51°13.936 2°55.556 1.9 280 13.1 98410 98
2006-11-23 08:09:59 51°13.945 2°55.549 2.6 316 13.1 98410 98
2006-11-23 08:10:04 51°13.954 2°55.543 3.4 304 13.1 98410 98
2006-11-23 08:10:09 51°13.963 2°55.536 1.4 356 13.1 98420 98
2006-11-23 08:10:14 51°13.972 2°55.53 4 57 13.1 98420 98
2006-11-23 08:10:19 51°13.981 2°55.524 2.8 250 13.1 98420 98
2006-11-23 08:10:23 51°13.988 2°55.519 4.3 301 13.1 98420 98
2006-11-23 08:10:29 51°13.999 2°55.512 4.5 19 13.1 98410 98
2006-11-23 08:10:34 51°14.008 2°55.506 3.6 302 13.1 98410 98
2006-11-23 08:10:39 51°14.016 2°55.5 3.3 251 13.1 98420 98
2006-11-23 08:10:44 51°14.025 2°55.494 2.9 303 13.1 98420 98
2006-11-23 08:10:49 51°14.033 2°55.488 3.3 318 13.1 98430 98
2006-11-23 08:10:54 51°14.042 2°55.482 2.2 308 13.1 98430 98
2006-11-23 08:10:59 51°14.05 2°55.476 3.3 26 13.1 98420 98
2006-11-23 08:11:03 51°14.056 2°55.471 2.6 303 13.1 98420 98
2006-11-23 08:11:09 51°14.066 2°55.464 2.8 334 13.1 98420 98
2006-11-23 08:11:14 51°14.074 2°55.458 2 58 13.1 98420 98
2006-11-23 08:11:19 51°14.082 2°55.452 3.9 22 13.1 98420 98
2006-11-23 08:11:24 51°14.09 2°55.446 1.3 308 13.1 98420 98
2006-11-23 08:11:29 51°14.098 2°55.44 3.3 30 13.1 98420 98
2006-11-23 08:11:34 51°14.106 2°55.434 3.1 311 13.1 98420 98
2006-11-23 08:11:39 51°14.114 2°55.427 4.2 20 13.1 98420 98
2006-11-23 08:11:44 51°14.123 2°55.421 3.5 302 13.1 98420 98
2006-11-23 08:11:49 51°14.132 2°55.413 4.4 19 13.1 98420 98
2006-11-23 08:11:54 51°14.141 2°55.406 3.3 308 13.1 98420 98
2006-11-23 08:11:59 51°14.15 2°55.398 4.1 23 13.1 98420 98
2006-11-23 08:12:04 51°14.161 2°55.391 3 309 13.1 98420 98
2006-11-23 08:12:09 51°14.171 2°55.382 2.4 22 13.1 98430 98
2006-11-23 08:12:14 51°14.181 2°55.372 5.1 304 13.1 98430 98
2006-11-23 08:12:19 51°14.191 2°55.361 2.8 245 13.1 98420 98
2006-11-23 08:12:24 51°14.201 2°55.35 4.7 307 13.1 98420 98
2006-11-23 08:12:29 51°14.212 2°55.338 4.6 248 13.1 98420 98
2006-11-23 08:12:34 51°14.222 2°55.325 3.5 328 13.1 98420 98
2006-11-23 08:12:39 51°14.232 2°55.311 3.3 323 13.1 98420 98
2006-11-23 08:12:44 51°14.242 2°55.297 4.7 303 13.1 98420 98
2006-11-23 08:12:49 51°14.252 2°55.281 4.8 23 13.1 98420 98
2006-11-23 08:12:54 51°14.262 2°55.266 9 310 13.1 98420 98
2006-11-23 08:12:59 51°14.271 2°55.25 9 19 13.1 98420 98
2006-11-23 08:13:03 51°14.279 2°55.236 7.6 310 13.1 98420 98
2006-11-23 08:13:09 51°14.29 2°55.216 8.5 251 13.1 98420 98
2006-11-23 08:13:14 51°14.299 2°55.2 8.1 308 13.1 98420 98
2006-11-23 08:13:19 51°14.308 2°55.182 5.4 244 13.1 98420 98
2006-11-23 08:13:23 51°14.316 2°55.169 6.9 309 13.1 98420 98
2006-11-23 08:13:29 51°14.327 2°55.149 8 22 13.1 98420 98
2006-11-23 08:13:34 51°14.336 2°55.133 5.9 306 13.1 98420 98
2006-11-23 08:13:39 51°14.346 2°55.116 5 247 13.1 98420 98
2006-11-23 08:13:43 51°14.354 2°55.103 4.1 309 13.1 98420 98
2006-11-23 08:13:49 51°14.367 2°55.085 8.5 21 13.1 98420 98
2006-11-23 08:13:54 51°14.378 2°55.07 10 305 13.1 98420 98
2006-11-23 08:13:59 51°14.39 2°55.057 8.6 252 13.1 98420 98
2006-11-23 08:14:04 51°14.402 2°55.045 9.8 308 13.1 98420 98
2006-11-23 08:14:09 51°14.415 2°55.034 8.5 254 13.1 98420 98
2006-11-23 08:14:14 51°14.429 2°55.022 9.6 303 13.1 98420 98
2006-11-23 08:14:19 51°14.442 2°55.012 5.5 262 13.1 98420 98
2006-11-23 08:14:23 51°14.453 2°55.003 6.1 310 13.1 98420 98
2006-11-23 08:14:29 51°14.47 2°54.99 9.2 255 13.1 98410 98
2006-11-23 08:14:34 51°14.485 2°54.979 7.4 302 13.1 98410 98
2006-11-23 08:14:38 51°14.496 2°54.969 8.4 250 13.1 98410 98
2006-11-23 08:14:44 51°14.514 2°54.956 4.4 304 13.1 98410 98
2006-11-23 08:14:49 51°14.528 2°54.944 4.7 261 13.1 98420 98
2006-11-23 08:14:54 51°14.543 2°54.933 6.8 305 13.1 98420 98
2006-11-23 08:14:59 51°14.558 2°54.92 7.6 250 13.1 98420 98
2006-11-23 08:15:03 51°14.57 2°54.911 9.3 304 13.1 98420 98
2006-11-23 08:15:09 51°14.587 2°54.896 8.3 251 13.1 98410 98
2006-11-23 08:15:14 51°14.602 2°54.883 8.3 309 13.1 98410 98
2006-11-23 08:15:19 51°14.616 2°54.869 7.5 261 13.1 98410 98
2006-11-23 08:15:24 51°14.63 2°54.855 8.4 310 13.1 98410 98
2006-11-23 08:15:29 51°14.644 2°54.841 7.6 251 13 98410 98
2006-11-23 08:15:34 51°14.658 2°54.827 7.5 307 13 98410 98
2006-11-23 08:15:39 51°14.672 2°54.813 7.6 250 13 98410 98
2006-11-23 08:15:43 51°14.683 2°54.801 9.6 308 13 98410 98
2006-11-23 08:15:49 51°14.7 2°54.784 9.8 260 13 98410 98
2006-11-23 08:15:54 51°14.714 2°54.77 8.9 305 13 98410 98
2006-11-23 08:15:59 51°14.728 2°54.756 7.9 248 13 98410 98
2006-11-23 08:16:03 51°14.74 2°54.745 9.9 305 13 98410 98
2006-11-23 08:16:09 51°14.757 2°54.728 8.6 257 13 98410 98
2006-11-23 08:16:14 51°14.771 2°54.714 9.3 307 13 98410 98
2006-11-23 08:16:18 51°14.782 2°54.703 8.8 256 13 98410 98
2006-11-23 08:16:24 51°14.799 2°54.686 8.8 309 13 98410 98
2006-11-23 08:16:29 51°14.814 2°54.672 9.2 256 13 98410 98
2006-11-23 08:16:34 51°14.828 2°54.657 10.3 308 13 98410 98
2006-11-23 08:16:39 51°14.843 2°54.642 10.5 257 13 98410 98
2006-11-23 08:16:44 51°14.858 2°54.628 8.5 305 13 98410 98
2006-11-23 08:16:49 51°14.873 2°54.613 8.2 252 13 98410 98
2006-11-23 08:16:54 51°14.889 2°54.598 10.5 281 13 98410 98
2006-11-23 08:16:59 51°14.904 2°54.583 11.6 257 13 98410 98
2006-11-23 08:17:04 51°14.919 2°54.569 8.4 305 13 98410 98
2006-11-23 08:17:09 51°14.934 2°54.554 11.3 257 13 98410 98
2006-11-23 08:17:14 51°14.95 2°54.539 9.1 305 13 98410 98
2006-11-23 08:17:19 51°14.965 2°54.525 9.8 251 13 98420 98
2006-11-23 08:17:23 51°14.978 2°54.514 8.3 306 13 98420 98
2006-11-23 08:17:29 51°14.996 2°54.495 9.6 253 13 98400 98
2006-11-23 08:17:34 51°15.011 2°54.482 8.5 303 13 98400 98
2006-11-23 08:17:39 51°15.027 2°54.467 10 253 13 98410 98
2006-11-23 08:17:43 51°15.04 2°54.456 9.3 305 13 98410 98
2006-11-23 08:17:49 51°15.058 2°54.438 7.8 251 13 98420 98
2006-11-23 08:17:54 51°15.073 2°54.423 7.9 303 13 98420 98
2006-11-23 08:17:59 51°15.088 2°54.409 9.9 252 12.9 98410 98
2006-11-23 08:18:04 51°15.103 2°54.393 10.2 305 12.9 98410 98
2006-11-23 08:18:09 51°15.118 2°54.376 11.1 256 12.9 98420 98
2006-11-23 08:18:14 51°15.133 2°54.36 9.8 310 12.9 98420 98
2006-11-23 08:18:19 51°15.147 2°54.343 11 253 12.9 98420 98
2006-11-23 08:18:24 51°15.162 2°54.327 9.3 304 12.9 98420 98
2006-11-23 08:18:29 51°15.177 2°54.311 10.7 255 12.9 98410 98
2006-11-23 08:18:34 51°15.192 2°54.296 12 304 12.9 98410 98
2006-11-23 08:18:39 51°15.208 2°54.282 9.3 256 12.9 98420 98
2006-11-23 08:18:44 51°15.224 2°54.267 9.3 306 12.9 98420 98
2006-11-23 08:18:49 51°15.24 2°54.255 7.5 252 12.9 98410 98
2006-11-23 08:18:54 51°15.257 2°54.24 7.9 281 12.9 98410 98
2006-11-23 08:18:59 51°15.273 2°54.229 8.8 256 12.9 98400 98
2006-11-23 08:19:03 51°15.286 2°54.218 8.4 311 12.9 98400 98
2006-11-23 08:19:09 51°15.306 2°54.203 8.5 259 12.9 98410 98
2006-11-23 08:19:14 51°15.322 2°54.189 8.2 307 12.9 98410 98
2006-11-23 08:19:19 51°15.338 2°54.175 9.4 256 12.9 98430 98
2006-11-23 08:19:23 51°15.351 2°54.163 10.4 305 12.9 98430 98
2006-11-23 08:19:29 51°15.37 2°54.144 9.1 252 12.9 98420 98
2006-11-23 08:19:34 51°15.386 2°54.129 9.7 306 12.9 98420 98
2006-11-23 08:19:39 51°15.402 2°54.111 8.8 250 12.9 98420 98
2006-11-23 08:19:43 51°15.414 2°54.098 8.3 303 12.9 98420 98
2006-11-23 08:19:49 51°15.432 2°54.078 8.5 252 12.9 98420 98
2006-11-23 08:19:54 51°15.447 2°54.062 11.8 306 12.9 98420 98
2006-11-23 08:19:59 51°15.464 2°54.045 9.4 254 12.9 98420 98
2006-11-23 08:20:03 51°15.476 2°54.032 11.5 305 12.9 98420 98
2006-11-23 08:20:09 51°15.495 2°54.013 8.4 253 12.9 98390 98
2006-11-23 08:20:14 51°15.511 2°53.996 8.2 308 12.9 98390 98
2006-11-23 08:20:19 51°15.527 2°53.981 9.6 255 12.9 98410 98
2006-11-23 08:20:23 51°15.54 2°53.968 10.6 305 12.9 98410 98
2006-11-23 08:20:29 51°15.56 2°53.949 9.1 253 12.9 98410 98
2006-11-23 08:20:34 51°15.575 2°53.934 9 307 12.9 98410 98
2006-11-23 08:20:39 51°15.591 2°53.919 8.2 247 12.9 98420 98
2006-11-23 08:20:43 51°15.604 2°53.907 8.5 306 12.9 98420 98
2006-11-23 08:20:49 51°15.623 2°53.889 8 255 12.9 98410 98
2006-11-23 08:20:54 51°15.64 2°53.873 9.4 280 12.9 98410 98
2006-11-23 08:20:59 51°15.656 2°53.858 8.8 253 12.9 98410 98
2006-11-23 08:21:04 51°15.672 2°53.841 8.9 305 12.9 98410 98
2006-11-23 08:21:09 51°15.688 2°53.826 10.5 253 12.9 98420 98
2006-11-23 08:21:14 51°15.703 2°53.81 8.7 305 12.9 98420 98
2006-11-23 08:21:19 51°15.72 2°53.794 8.1 250 12.9 98420 98
2006-11-23 08:21:23 51°15.732 2°53.78 8.5 311 12.9 98420 98
2006-11-23 08:21:29 51°15.751 2°53.762 9.1 253 12.9 98410 98
2006-11-23 08:21:34 51°15.768 2°53.745 10.4 310 12.9 98410 98
2006-11-23 08:21:39 51°15.784 2°53.73 8.7 253 12.9 98410 98
2006-11-23 08:21:44 51°15.799 2°53.714 9.7 305 12.9 98410 98
2006-11-23 08:21:49 51°15.816 2°53.697 8.6 248 12.8 98400 98
2006-11-23 08:21:54 51°15.832 2°53.681 10.5 306 12.8 98400 98
2006-11-23 08:21:59 51°15.848 2°53.666 8.4 250 12.9 98410 98
2006-11-23 08:22:03 51°15.861 2°53.652 7.7 307 12.9 98410 98
2006-11-23 08:22:09 51°15.88 2°53.633 9.5 254 12.9 98410 98
2006-11-23 08:22:14 51°15.896 2°53.616 9.6 308 12.9 98410 98
2006-11-23 08:22:19 51°15.911 2°53.601 9 251 12.8 98410 98
2006-11-23 08:22:24 51°15.928 2°53.584 10.1 304 12.8 98410 98
2006-11-23 08:22:29 51°15.942 2°53.568 9.8 253 12.8 98410 98
2006-11-23 08:22:34 51°15.959 2°53.552 12.4 302 12.8 98410 98
2006-11-23 08:22:39 51°15.975 2°53.535 12.7 257 12.8 98400 98
2006-11-23 08:22:44 51°15.991 2°53.519 9.8 303 12.8 98400 98
2006-11-23 08:22:49 51°16.007 2°53.504 11.7 257 12.8 98410 98
2006-11-23 08:22:54 51°16.022 2°53.488 9.7 280 12.8 98410 98
2006-11-23 08:22:59 51°16.038 2°53.471 10.1 250 12.8 98400 98
2006-11-23 08:23:04 51°16.054 2°53.455 8.8 309 12.8 98400 98
2006-11-23 08:23:09 51°16.07 2°53.439 9.7 251 12.8 98400 98
2006-11-23 08:23:14 51°16.086 2°53.424 9.4 303 12.8 98400 98
2006-11-23 08:23:19 51°16.102 2°53.407 9.3 252 12.8 98410 98
2006-11-23 08:23:23 51°16.115 2°53.394 9.7 304 12.8 98410 98
2006-11-23 08:23:29 51°16.134 2°53.375 10.3 250 12.8 98410 98
2006-11-23 08:23:34 51°16.15 2°53.359 10 309 12.8 98410 98
2006-11-23 08:23:39 51°16.166 2°53.343 11.1 254 12.8 98410 98
2006-11-23 08:23:44 51°16.182 2°53.327 10 307 12.8 98410 98
2006-11-23 08:23:49 51°16.199 2°53.312 10.1 253 12.8 98410 98
2006-11-23 08:23:54 51°16.214 2°53.295 9.9 307 12.8 98410 98
2006-11-23 08:23:59 51°16.23 2°53.28 11 255 12.8 98410 98
2006-11-23 08:24:04 51°16.246 2°53.264 9.5 306 12.8 98410 98
2006-11-23 08:24:09 51°16.262 2°53.248 12.5 256 12.8 98400 98
2006-11-23 08:24:14 51°16.278 2°53.231 11.4 302 12.8 98400 98
2006-11-23 08:24:19 51°16.293 2°53.216 10.7 254 12.9 98400 98
2006-11-23 08:24:23 51°16.306 2°53.203 11 306 12.9 98400 98
2006-11-23 08:24:29 51°16.326 2°53.183 10.9 254 12.8 98400 98
2006-11-23 08:24:34 51°16.342 2°53.167 9.6 305 12.8 98400 98
2006-11-23 08:24:39 51°16.357 2°53.152 8.7 248 12.9 98400 98
2006-11-23 08:24:44 51°16.374 2°53.136 9.7 304 12.9 98400 98
2006-11-23 08:24:49 51°16.39 2°53.121 10.8 254 12.9 98410 98
2006-11-23 08:24:54 51°16.405 2°53.105 10 280 12.9 98410 98
2006-11-23 08:24:59 51°16.422 2°53.089 9.1 253 12.9 98410 98
2006-11-23 08:25:03 51°16.434 2°53.076 9.4 303 12.9 98410 98
2006-11-23 08:25:09 51°16.454 2°53.058 9.7 252 12.9 98410 98
2006-11-23 08:25:14 51°16.469 2°53.043 9.8 303 12.9 98410 98
2006-11-23 08:25:19 51°16.485 2°53.027 10.3 255 12.9 98400 98
2006-11-23 08:25:24 51°16.501 2°53.012 10.8 305 12.9 98400 98
2006-11-23 08:25:29 51°16.518 2°52.997 10.4 257 12.9 98400 98
2006-11-23 08:25:34 51°16.534 2°52.981 10.6 307 12.9 98400 98
2006-11-23 08:25:39 51°16.55 2°52.966 9.9 251 12.9 98400 98
2006-11-23 08:25:44 51°16.566 2°52.951 9.3 302 12.9 98400 98
2006-11-23 08:25:49 51°16.582 2°52.936 9.9 255 12.9 98390 98
2006-11-23 08:25:54 51°16.598 2°52.92 9 309 12.9 98390 98
2006-11-23 08:25:59 51°16.614 2°52.905 9.9 253 12.9 98400 98
2006-11-23 08:26:04 51°16.63 2°52.892 8.7 310 12.9 98400 98
2006-11-23 08:26:09 51°16.647 2°52.877 9.8 258 12.9 98400 98
2006-11-23 08:26:14 51°16.662 2°52.864 9.8 308 12.9 98400 98
2006-11-23 08:26:19 51°16.679 2°52.85 8.2 253 12.9 98400 98
2006-11-23 08:26:23 51°16.692 2°52.839 11.9 304 12.9 98400 98
2006-11-23 08:26:29 51°16.711 2°52.822 8.8 259 12.9 98400 98
2006-11-23 08:26:34 51°16.727 2°52.808 9.1 309 12.9 98400 98
2006-11-23 08:26:39 51°16.744 2°52.794 9.3 259 12.9 98400 98
2006-11-23 08:26:43 51°16.756 2°52.783 11.5 309 12.9 98400 98
2006-11-23 08:26:49 51°16.775 2°52.767 10.8 257 12.9 98410 98
2006-11-23 08:26:54 51°16.791 2°52.752 8.1 282 12.9 98410 98
2006-11-23 08:26:59 51°16.806 2°52.738 10.5 259 12.9 98400 98
2006-11-23 08:27:04 51°16.821 2°52.724 8.9 302 12.9 98400 98
2006-11-23 08:27:09 51°16.838 2°52.709 10 257 12.9 98400 98
2006-11-23 08:27:14 51°16.853 2°52.696 11.1 303 12.9 98400 98
2006-11-23 08:27:19 51°16.869 2°52.681 10.3 254 12.9 98400 98
2006-11-23 08:27:24 51°16.884 2°52.668 9.4 310 12.9 98400 98
2006-11-23 08:27:29 51°16.9 2°52.654 9.9 258 12.9 98390 98
2006-11-23 08:27:34 51°16.916 2°52.64 9.7 309 12.9 98390 98
2006-11-23 08:27:39 51°16.932 2°52.626 9.6 261 12.9 98400 98
2006-11-23 08:27:44 51°16.948 2°52.612 11.4 304 12.9 98400 98
2006-11-23 08:27:49 51°16.964 2°52.599 10.8 259 12.9 98390 98
2006-11-23 08:27:54 51°16.98 2°52.585 10.4 309 12.9 98390 98
2006-11-23 08:27:59 51°16.996 2°52.573 7.7 261 12.9 98400 98
2006-11-23 08:28:03 51°17.01 2°52.564 6.9 310 12.9 98400 98
2006-11-23 08:28:08 51°17.028 2°52.555 7.7 256 12.9 98390 98
2006-11-23 08:28:14 51°17.048 2°52.544 4.7 307 12.9 98390 98
2006-11-23 08:28:19 51°17.065 2°52.536 5 264 12.9 98390 98
2006-11-23 08:28:24 51°17.082 2°52.53 5.3 308 12.9 98390 98
2006-11-23 08:28:29 51°17.1 2°52.526 7 270 12.9 98400 98
2006-11-23 08:28:34 51°17.118 2°52.522 5.8 302 12.9 98400 98
2006-11-23 08:28:39 51°17.135 2°52.517 5 269 12.9 98410 98
2006-11-23 08:28:43 51°17.15 2°52.515 8.2 303 12.9 98410 98
2006-11-23 08:28:49 51°17.171 2°52.512 7.6 25 12.9 98400 98
2006-11-23 08:28:54 51°17.189 2°52.509 6.5 281 12.9 98400 98
2006-11-23 08:28:59 51°17.207 2°52.508 5.9 269 12.9 98410 98
2006-11-23 08:29:03 51°17.221 2°52.505 7.3 58 12.9 98410 98
2006-11-23 08:29:09 51°17.243 2°52.503 4.2 268 13 98410 98
2006-11-23 08:29:14 51°17.261 2°52.5 9.9 60 13 98410 98
2006-11-23 08:29:19 51°17.278 2°52.497 5.8 31 13 98410 98
2006-11-23 08:29:24 51°17.297 2°52.494 4.8 50 13 98410 98
2006-11-23 08:29:29 51°17.315 2°52.491 3.6 270 13 98410 98
2006-11-23 08:29:34 51°17.332 2°52.487 6 306 13 98410 98
2006-11-23 08:29:39 51°17.351 2°52.484 6.1 265 13 98410 98
2006-11-23 08:29:44 51°17.369 2°52.479 4.5 309 13 98410 98
2006-11-23 08:29:49 51°17.387 2°52.475 7.4 268 13 98420 98
2006-11-23 08:29:54 51°17.405 2°52.47 6.3 281 13 98420 98
2006-11-23 08:29:59 51°17.422 2°52.466 6 265 13 98420 98
2006-11-23 08:30:03 51°17.437 2°52.461 5.1 302 13 98420 98
2006-11-23 08:30:08 51°17.454 2°52.458 4.8 264 13 98410 98
2006-11-23 08:30:14 51°17.476 2°52.452 4.6 304 13 98410 98
2006-11-23 08:30:19 51°17.494 2°52.449 5.4 268 13 98410 98
2006-11-23 08:30:24 51°17.512 2°52.446 5.2 312 13 98410 98
2006-11-23 08:30:29 51°17.53 2°52.442 5.9 270 13 98410 98
2006-11-23 08:30:34 51°17.548 2°52.441 5.7 309 13 98410 98
2006-11-23 08:30:39 51°17.567 2°52.438 5.5 22 13 98400 98
2006-11-23 08:30:44 51°17.584 2°52.437 5.2 333 13 98400 98
2006-11-23 08:30:49 51°17.602 2°52.436 6.7 266 13 98420 98
2006-11-23 08:30:54 51°17.62 2°52.434 5.8 76 13 98420 98
2006-11-23 08:30:59 51°17.638 2°52.434 5.4 270 13 98410 98
2006-11-23 08:31:04 51°17.656 2°52.432 6.8 300 13 98410 98
2006-11-23 08:31:09 51°17.674 2°52.43 7.6 269 13 98410 98
2006-11-23 08:31:14 51°17.692 2°52.43 4 302 13 98410 98
2006-11-23 08:31:19 51°17.71 2°52.429 5.2 267 13 98410 98
2006-11-23 08:31:24 51°17.728 2°52.43 6.9 304 13 98410 98
2006-11-23 08:31:29 51°17.746 2°52.429 4.4 15 13 98410 98
2006-11-23 08:31:34 51°17.764 2°52.429 5.7 302 13 98410 98
2006-11-23 08:31:39 51°17.782 2°52.429 5.8 32 13 98410 98
2006-11-23 08:31:44 51°17.799 2°52.431 6.2 54 13 98410 98
2006-11-23 08:31:49 51°17.818 2°52.433 5.9 21 13 98410 98
2006-11-23 08:31:54 51°17.836 2°52.435 5.4 79 13 98410 98
2006-11-23 08:31:59 51°17.854 2°52.437 5.1 23 13 98410 98
2006-11-23 08:32:04 51°17.871 2°52.441 4.7 309 13 98410 98
2006-11-23 08:32:09 51°17.889 2°52.443 5.7 22 13 98400 98
2006-11-23 08:32:14 51°17.907 2°52.447 5.8 315 13 98400 98
2006-11-23 08:32:19 51°17.925 2°52.449 5.5 26 13 98410 98
2006-11-23 08:32:24 51°17.942 2°52.453 7.6 58 13 98410 98
2006-11-23 08:32:29 51°17.96 2°52.456 4.5 21 13 98410 98
2006-11-23 08:32:34 51°17.978 2°52.461 5.3 56 13 98410 98
2006-11-23 08:32:39 51°17.996 2°52.464 5.6 20 13.1 98410 98
2006-11-23 08:32:43 51°18.01 2°52.468 4.2 51 13.1 98410 98
2006-11-23 08:32:49 51°18.031 2°52.477 4.9 24 13.1 98410 98
2006-11-23 08:32:54 51°18.048 2°52.483 5.8 57 13.1 98410 98
2006-11-23 08:32:59 51°18.065 2°52.494 4.8 27 13.1 98410 98
2006-11-23 08:33:04 51°18.082 2°52.505 2.7 55 13.1 98410 98
2006-11-23 08:33:09 51°18.097 2°52.519 2.1 29 13.1 98410 98
2006-11-23 08:33:14 51°18.113 2°52.532 2.6 52 13.1 98410 98
2006-11-23 08:33:19 51°18.127 2°52.548 4.5 23 13.1 98410 98
2006-11-23 08:33:24 51°18.142 2°52.565 4.7 39 13.1 98410 98
2006-11-23 08:33:29 51°18.155 2°52.583 4.1 40 13.1 98400 98
2006-11-23 08:33:34 51°18.169 2°52.6 4.7 33 13.1 98400 98
2006-11-23 08:33:39 51°18.182 2°52.62 4.6 42 13.2 98420 98
2006-11-23 08:33:44 51°18.196 2°52.638 5.5 39 13.2 98420 98
2006-11-23 08:33:49 51°18.208 2°52.658 5.4 41 13.2 98410 98
2006-11-23 08:33:54 51°18.221 2°52.678 6.2 38 13.2 98410 98
2006-11-23 08:33:59 51°18.233 2°52.698 7.3 40 13.2 98420 98
2006-11-23 08:34:04 51°18.245 2°52.718 4 53 13.2 98420 98
2006-11-23 08:34:09 51°18.256 2°52.739 5.7 42 13.1 98410 98
2006-11-23 08:34:14 51°18.269 2°52.76 5.2 58 13.1 98410 98
2006-11-23 08:34:19 51°18.283 2°52.78 5.1 42 13.1 98410 98
2006-11-23 08:34:23 51°18.294 2°52.796 5.1 58 13.1 98410 98
2006-11-23 08:34:29 51°18.309 2°52.818 4.1 32 13.1 98410 98
2006-11-23 08:34:34 51°18.322 2°52.838 5.6 42 13.1 98410 98
2006-11-23 08:34:39 51°18.335 2°52.858 4.3 26 13.1 98410 98
2006-11-23 08:34:43 51°18.347 2°52.872 5.2 31 13.1 98410 98
2006-11-23 08:34:49 51°18.361 2°52.897 4.3 41 13.2 98410 98
2006-11-23 08:34:54 51°18.374 2°52.917 4.7 32 13.2 98410 98
2006-11-23 08:34:59 51°18.388 2°52.935 3 24 13.1 98420 98
2006-11-23 08:35:04 51°18.403 2°52.953 3.4 51 13.1 98420 98
2006-11-23 08:35:09 51°18.418 2°52.968 3.4 20 13.1 98420 98
2006-11-23 08:35:14 51°18.431 2°52.988 4.6 57 13.1 98420 98
2006-11-23 08:35:19 51°18.446 2°53.003 3.8 24 13.1 98410 98
2006-11-23 08:35:23 51°18.456 2°53.021 5.4 53 13.1 98410 98
2006-11-23 08:35:29 51°18.474 2°53.04 5.4 22 13.1 98410 98
2006-11-23 08:35:34 51°18.486 2°53.062 5.8 58 13.1 98410 98
2006-11-23 08:35:39 51°18.501 2°53.079 4.5 25 13.1 98410 98
2006-11-23 08:35:44 51°18.514 2°53.098 4.6 50 13.1 98410 98
2006-11-23 08:35:49 51°18.529 2°53.116 4.1 39 13.1 98410 98
2006-11-23 08:35:54 51°18.544 2°53.132 3.1 80 13.1 98410 98
2006-11-23 08:35:59 51°18.558 2°53.15 5 45 13.1 98410 98
2006-11-23 08:36:04 51°18.571 2°53.168 3.7 53 13.1 98410 98
2006-11-23 08:36:09 51°18.585 2°53.187 4.1 41 13.1 98410 97
2006-11-23 08:36:14 51°18.597 2°53.207 4.8 40 13.1 98410 97
2006-11-23 08:36:19 51°18.61 2°53.228 3.7 26 13.1 98410 97
2006-11-23 08:36:24 51°18.625 2°53.242 5 37 13.1 98410 97
2006-11-23 08:36:29 51°18.636 2°53.265 4.5 36 13.1 98410 97
2006-11-23 08:36:34 51°18.652 2°53.279 4 36 13.1 98410 97
2006-11-23 08:36:39 51°18.664 2°53.3 5.6 44 13.1 98410 97
2006-11-23 08:36:43 51°18.676 2°53.313 3.9 55 13.1 98410 97
2006-11-23 08:36:49 51°18.694 2°53.333 4.4 45 13.1 98400 97
2006-11-23 08:36:54 51°18.707 2°53.351 3 51 13.1 98400 97
2006-11-23 08:36:59 51°18.722 2°53.366 2.5 40 13.1 98400 97
2006-11-23 08:37:04 51°18.735 2°53.385 3.9 51 13.1 98400 97
2006-11-23 08:37:09 51°18.75 2°53.399 4 42 13.1 98400 97
2006-11-23 08:37:14 51°18.762 2°53.419 6.8 58 13.1 98400 97
2006-11-23 08:37:19 51°18.777 2°53.434 5.2 44 13.1 98400 97
2006-11-23 08:37:23 51°18.786 2°53.45 5 44 13.1 98400 97
2006-11-23 08:37:29 51°18.803 2°53.471 5.1 39 13.1 98410 97
2006-11-23 08:37:34 51°18.817 2°53.488 4.7 56 13.1 98410 97
2006-11-23 08:37:39 51°18.832 2°53.504 5 27 13.1 98410 97
2006-11-23 08:37:43 51°18.843 2°53.516 4.1 37 13.1 98410 97
2006-11-23 08:37:49 51°18.861 2°53.536 3.1 21 13.1 98400 97
2006-11-23 08:37:54 51°18.876 2°53.551 4.9 80 13.1 98400 97
2006-11-23 08:37:59 51°18.89 2°53.569 3.4 26 13.1 98410 97
2006-11-23 08:38:04 51°18.905 2°53.584 5.1 42 13.1 98410 97
2006-11-23 08:38:09 51°18.918 2°53.602 4.2 26 13.1 98410 97
2006-11-23 08:38:14 51°18.933 2°53.619 5 38 13.1 98410 97
2006-11-23 08:38:19 51°18.947 2°53.637 5.4 25 13.1 98400 97
2006-11-23 08:38:24 51°18.962 2°53.652 4 58 13.1 98400 97
2006-11-23 08:38:29 51°18.975 2°53.671 4.3 19 13.1 98410 97
2006-11-23 08:38:34 51°18.99 2°53.685 4.8 45 13.1 98410 97
2006-11-23 08:38:39 51°19.004 2°53.704 4.9 19 13.1 98410 97
2006-11-23 08:38:44 51°19.019 2°53.719 5.3 51 13.1 98410 97
2006-11-23 08:38:49 51°19.032 2°53.739 5.4 42 13.1 98400 97
2006-11-23 08:38:54 51°19.047 2°53.754 3.7 55 13.1 98400 97
2006-11-23 08:38:59 51°19.061 2°53.773 4.5 22 13.1 98410 97
2006-11-23 08:39:04 51°19.075 2°53.789 3.5 53 13.1 98410 97
2006-11-23 08:39:09 51°19.09 2°53.805 5.1 27 13.1 98410 97
2006-11-23 08:39:14 51°19.104 2°53.821 4.9 57 13.1 98410 97
2006-11-23 08:39:19 51°19.119 2°53.838 4.4 26 13.1 98400 97
2006-11-23 08:39:23 51°19.131 2°53.851 4.6 37 13.1 98400 97
2006-11-23 08:39:29 51°19.148 2°53.871 3.4 21 13.1 98400 97
2006-11-23 08:39:34 51°19.163 2°53.886 4.4 38 13.1 98400 97
2006-11-23 08:39:39 51°19.178 2°53.903 4.1 20 13.1 98410 97
2006-11-23 08:39:43 51°19.19 2°53.915 2.6 37 13.1 98410 97
2006-11-23 08:39:49 51°19.209 2°53.934 3.1 25 13.1 98410 97
2006-11-23 08:39:54 51°19.224 2°53.952 5 81 13.1 98410 97
2006-11-23 08:39:59 51°19.239 2°53.965 4.6 21 13.1 98410 97
2006-11-23 08:40:04 51°19.252 2°53.984 3.7 57 13.1 98410 97
2006-11-23 08:40:09 51°19.268 2°53.999 4.3 44 13.1 98410 97
2006-11-23 08:40:14 51°19.281 2°54.018 4.2 53 13.1 98410 97
2006-11-23 08:40:19 51°19.295 2°54.037 6.6 41 13.1 98410 97
2006-11-23 08:40:23 51°19.306 2°54.05 4.2 56 13.1 98410 97
2006-11-23 08:40:29 51°19.322 2°54.074 5.2 44 13.2 98410 97
2006-11-23 08:40:34 51°19.338 2°54.087 3.2 51 13.2 98410 97
2006-11-23 08:40:39 51°19.35 2°54.109 4.9 37 13.1 98400 97
2006-11-23 08:40:44 51°19.365 2°54.125 3.4 58 13.1 98400 97
2006-11-23 08:40:49 51°19.378 2°54.144 4.8 38 13.1 98400 97
2006-11-23 08:40:54 51°19.392 2°54.162 5.2 39 13.1 98400 97
2006-11-23 08:40:59 51°19.406 2°54.182 5.9 45 13.1 98400 97
2006-11-23 08:41:04 51°19.419 2°54.2 6.3 39 13.1 98400 97
2006-11-23 08:41:09 51°19.431 2°54.222 5 41 13.1 98400 97
2006-11-23 08:41:14 51°19.446 2°54.24 4.2 45 13.1 98400 97
2006-11-23 08:41:19 51°19.46 2°54.259 6.6 44 13.1 98400 97
2006-11-23 08:41:24 51°19.474 2°54.277 5.2 42 13.1 98400 97
2006-11-23 08:41:29 51°19.488 2°54.294 6 44 13.1 98400 97
2006-11-23 08:41:34 51°19.502 2°54.313 4 57 13.1 98400 97
2006-11-23 08:41:39 51°19.516 2°54.33 5 39 13.1 98400 97
2006-11-23 08:41:44 51°19.53 2°54.349 5.6 50 13.1 98400 97
2006-11-23 08:41:49 51°19.543 2°54.369 5.5 42 13.1 98410 97
2006-11-23 08:41:54 51°19.557 2°54.387 5.3 42 13.1 98410 97
2006-11-23 08:41:59 51°19.57 2°54.407 4.5 38 13.1 98400 97
2006-11-23 08:42:03 51°19.581 2°54.422 5.2 58 13.1 98400 97
2006-11-23 08:42:09 51°19.597 2°54.443 5.7 36 13.1 98400 97
2006-11-23 08:42:14 51°19.61 2°54.461 5.4 51 13.1 98400 97
2006-11-23 08:42:19 51°19.625 2°54.478 5.2 22 13.1 98410 97
2006-11-23 08:42:24 51°19.638 2°54.497 4.5 45 13.1 98410 97
2006-11-23 08:42:29 51°19.653 2°54.513 6.4 25 13.1 98400 97
2006-11-23 08:42:34 51°19.665 2°54.533 5.3 38 13.1 98400 97
2006-11-23 08:42:39 51°19.68 2°54.55 4.4 23 13.1 98400 97
2006-11-23 08:42:44 51°19.694 2°54.569 4.9 40 13.1 98400 97
2006-11-23 08:42:49 51°19.707 2°54.588 6.4 25 13.1 98400 97
2006-11-23 08:42:54 51°19.72 2°54.607 5.6 55 13.1 98400 97
2006-11-23 08:42:59 51°19.734 2°54.626 5.4 39 13.1 98410 97
2006-11-23 08:43:04 51°19.747 2°54.646 5.9 41 13.1 98410 97
2006-11-23 08:43:09 51°19.76 2°54.665 5.9 38 13.1 98410 97
2006-11-23 08:43:14 51°19.773 2°54.685 5.1 41 13.1 98410 97
2006-11-23 08:43:19 51°19.787 2°54.704 5.9 25 13.1 98410 97
2006-11-23 08:43:23 51°19.798 2°54.718 3.1 37 13.1 98410 97
2006-11-23 08:43:29 51°19.815 2°54.74 4.5 41 13.1 98410 97
2006-11-23 08:43:34 51°19.83 2°54.755 5 59 13.1 98410 97
2006-11-23 08:43:39 51°19.843 2°54.775 5.1 22 13.1 98400 97
2006-11-23 08:43:43 51°19.856 2°54.786 4.6 56 13.1 98400 97
2006-11-23 08:43:49 51°19.871 2°54.809 5.4 44 13.1 98400 97
2006-11-23 08:43:54 51°19.886 2°54.824 4.7 75 13.1 98400 97
2006-11-23 08:43:59 51°19.899 2°54.845 4.3 40 13.1 98400 97
2006-11-23 08:44:03 51°19.911 2°54.856 3.6 42 13.1 98400 97
2006-11-23 08:44:09 51°19.926 2°54.881 5 40 13.1 98400 97
2006-11-23 08:44:14 51°19.941 2°54.894 4.5 51 13.1 98400 97
2006-11-23 08:44:19 51°19.953 2°54.917 5.4 40 13.1 98400 97
2006-11-23 08:44:24 51°19.969 2°54.929 2.8 57 13.1 98400 97
2006-11-23 08:44:29 51°19.981 2°54.949 6.8 39 13.1 98400 97
2006-11-23 08:44:34 51°19.995 2°54.965 3.8 51 13.1 98400 97
2006-11-23 08:44:39 51°20.008 2°54.982 7.3 38 13.1 98400 97
2006-11-23 08:44:44 51°20.021 2°55.001 4.1 51 13.1 98400 97
2006-11-23 08:44:49 51°20.035 2°55.017 5.5 45 13.1 98400 97
2006-11-23 08:44:54 51°20.047 2°55.036 4.7 54 13.1 98400 97
2006-11-23 08:44:59 51°20.061 2°55.052 5.3 39 13.1 98400 97
2006-11-23 08:45:04 51°20.074 2°55.072 4.1 42 13.1 98400 97
2006-11-23 08:45:09 51°20.089 2°55.088 4.3 20 13.1 98400 97
2006-11-23 08:45:14 51°20.101 2°55.108 5.6 55 13.1 98400 97
2006-11-23 08:45:19 51°20.117 2°55.122 4 25 13.1 98400 97
2006-11-23 08:45:24 51°20.129 2°55.142 3.5 52 13.1 98400 97
2006-11-23 08:45:29 51°20.143 2°55.158 3.5 20 13.1 98400 97
2006-11-23 08:45:34 51°20.157 2°55.176 4 57 13.1 98400 97
2006-11-23 08:45:39 51°20.171 2°55.195 4.8 21 13.1 98410 97
2006-11-23 08:45:44 51°20.184 2°55.213 5.5 42 13.1 98410 97
2006-11-23 08:45:49 51°20.198 2°55.231 6.9 27 13.1 98410 97
2006-11-23 08:45:53 51°20.208 2°55.247 4.9 39 13.1 98410 97
2006-11-23 08:45:59 51°20.224 2°55.27 5.1 21 13.1 98400 97
2006-11-23 08:46:04 51°20.237 2°55.289 4.8 37 13.1 98400 97
2006-11-23 08:46:09 51°20.25 2°55.31 4.8 40 13.1 98410 97
2006-11-23 08:46:14 51°20.265 2°55.325 3.9 57 13.1 98410 97
2006-11-23 08:46:19 51°20.277 2°55.346 5.2 43 13.1 98410 97
2006-11-23 08:46:24 51°20.293 2°55.361 3.5 36 13.1 98410 97
2006-11-23 08:46:29 51°20.306 2°55.381 4.5 38 13.1 98410 97
2006-11-23 08:46:34 51°20.32 2°55.397 4.5 55 13.1 98410 97
2006-11-23 08:46:39 51°20.333 2°55.416 4.8 38 13.1 98400 97
2006-11-23 08:46:44 51°20.347 2°55.434 6.4 50 13.1 98400 97
2006-11-23 08:46:49 51°20.361 2°55.452 6.3 20 13.1 98400 97
2006-11-23 08:46:54 51°20.375 2°55.471 3.2 36 13.1 98400 97
2006-11-23 08:46:59 51°20.389 2°55.488 5.2 26 13.1 98400 97
2006-11-23 08:47:04 51°20.402 2°55.507 4 37 13.1 98400 97
2006-11-23 08:47:09 51°20.415 2°55.527 3.9 39 13 98400 97
2006-11-23 08:47:14 51°20.43 2°55.543 5.6 37 13 98400 97
2006-11-23 08:47:19 51°20.442 2°55.565 7.4 45 13.1 98400 97
2006-11-23 08:47:24 51°20.457 2°55.582 4.7 39 13.1 98400 97
2006-11-23 08:47:29 51°20.47 2°55.601 7 42 13.1 98400 97
2006-11-23 08:47:34 51°20.483 2°55.622 5.4 38 13.1 98400 97
2006-11-23 08:47:39 51°20.497 2°55.64 6.7 42 13.1 98400 97
2006-11-23 08:47:43 51°20.507 2°55.656 5.1 43 13.1 98400 97
2006-11-23 08:47:49 51°20.522 2°55.681 4.7 38 13.1 98410 97
2006-11-23 08:47:54 51°20.537 2°55.698 5.1 45 13.1 98410 97
2006-11-23 08:47:59 51°20.55 2°55.716 5 35 13.1 98400 97
2006-11-23 08:48:03 51°20.561 2°55.732 4 44 13.1 98400 97
2006-11-23 08:48:09 51°20.579 2°55.752 4.8 26 13.1 98410 97
2006-11-23 08:48:14 51°20.592 2°55.772 5.6 42 13.1 98410 97
2006-11-23 08:48:19 51°20.605 2°55.79 6.3 41 13.1 98410 97
2006-11-23 08:48:24 51°20.618 2°55.81 5.1 36 13.1 98410 97
2006-11-23 08:48:29 51°20.631 2°55.829 5 45 13.1 98410 97
2006-11-23 08:48:34 51°20.644 2°55.849 4.8 43 13.1 98410 97
2006-11-23 08:48:39 51°20.66 2°55.864 4.4 43 13.1 98400 97
2006-11-23 08:48:43 51°20.668 2°55.883 5.2 56 13.1 98400 97
2006-11-23 08:48:49 51°20.686 2°55.903 4.6 43 13.1 98400 97
2006-11-23 08:48:53 51°20.695 2°55.92 6.2 34 13.1 98400 97
2006-11-23 08:48:59 51°20.709 2°55.944 5.6 44 13.1 98410 97
2006-11-23 08:49:04 51°20.724 2°55.961 4.9 58 13.1 98410 97
2006-11-23 08:49:09 51°20.736 2°55.981 4.7 40 13.1 98410 97
2006-11-23 08:49:14 51°20.751 2°55.997 6.4 40 13.1 98410 97
2006-11-23 08:49:19 51°20.763 2°56.018 5.9 34 13.1 98410 97
2006-11-23 08:49:24 51°20.776 2°56.036 4.2 37 13.1 98410 97
2006-11-23 08:49:29 51°20.788 2°56.056 5.6 27 13.1 98400 97
2006-11-23 08:49:34 51°20.801 2°56.076 4.6 35 13.1 98400 97
2006-11-23 08:49:39 51°20.813 2°56.096 6.1 38 13.1 98400 97
2006-11-23 08:49:43 51°20.824 2°56.111 4.6 29 13.1 98400 97
2006-11-23 08:49:49 51°20.839 2°56.136 5 40 13.1 98400 97
2006-11-23 08:49:54 51°20.852 2°56.155 6.4 34 13.1 98400 97
2006-11-23 08:49:59 51°20.865 2°56.176 4.9 44 13.1 98410 97
2006-11-23 08:50:03 51°20.877 2°56.189 6.3 40 13.1 98410 97
2006-11-23 08:50:09 51°20.892 2°56.214 5.1 36 13.1 98410 97
2006-11-23 08:50:14 51°20.907 2°56.231 4.6 41 13.1 98410 97
2006-11-23 08:50:19 51°20.92 2°56.25 5.9 36 13 98410 97
2006-11-23 08:50:24 51°20.933 2°56.27 4.8 37 13 98410 97
2006-11-23 08:50:29 51°20.947 2°56.287 5.1 44 13.1 98410 97
2006-11-23 08:50:34 51°20.959 2°56.309 6.1 36 13.1 98410 97
2006-11-23 08:50:39 51°20.974 2°56.326 4.7 31 13.1 98400 97
2006-11-23 08:50:44 51°20.986 2°56.346 6.4 38 13.1 98400 97
2006-11-23 08:50:49 51°20.999 2°56.363 5.6 43 13.1 98410 97
2006-11-23 08:50:54 51°21.011 2°56.385 5.8 39 13.1 98410 97
2006-11-23 08:50:59 51°21.024 2°56.403 4.9 34 13.1 98410 97
2006-11-23 08:51:04 51°21.035 2°56.424 3.7 39 13.1 98410 97
2006-11-23 08:51:09 51°21.048 2°56.442 3.9 39 13.1 98410 97
2006-11-23 08:51:14 51°21.06 2°56.463 5.7 32 13.1 98410 97
2006-11-23 08:51:19 51°21.074 2°56.482 4.4 39 13.1 98400 97
2006-11-23 08:51:24 51°21.084 2°56.505 5.1 30 13.1 98400 97
2006-11-23 08:51:29 51°21.097 2°56.524 4.2 36 13.1 98410 97
2006-11-23 08:51:34 51°21.107 2°56.547 6.5 32 13.1 98410 97
2006-11-23 08:51:39 51°21.12 2°56.567 4.9 39 13.1 98410 97
2006-11-23 08:51:43 51°21.13 2°56.583 5.4 32 13.1 98410 97
2006-11-23 08:51:49 51°21.143 2°56.61 3.9 42 13 98410 97
2006-11-23 08:51:54 51°21.156 2°56.629 6.4 37 13 98410 97
2006-11-23 08:51:59 51°21.167 2°56.652 4.6 29 13.1 98410 97
2006-11-23 08:52:03 51°21.177 2°56.667 4.3 32 13.1 98410 97
2006-11-23 08:52:09 51°21.19 2°56.694 4.9 34 13 98410 97
2006-11-23 08:52:14 51°21.203 2°56.714 5 37 13 98410 97
2006-11-23 08:52:19 51°21.216 2°56.735 6.4 33 13 98400 97
2006-11-23 08:52:24 51°21.226 2°56.758 5.2 26 13 98400 97
2006-11-23 08:52:29 51°21.239 2°56.78 4.8 24 13 98400 97
2006-11-23 08:52:34 51°21.247 2°56.804 6.8 24 13 98400 97
2006-11-23 08:52:39 51°21.256 2°56.829 7.5 24 13 98400 97
2006-11-23 08:52:44 51°21.265 2°56.853 7.4 28 13 98400 97
2006-11-23 08:52:49 51°21.275 2°56.876 7.7 35 13 98410 97
2006-11-23 08:52:54 51°21.283 2°56.899 6.4 31 13 98410 97
2006-11-23 08:52:58 51°21.291 2°56.918 5.9 27 13 98400 97
2006-11-23 08:53:05 51°21.306 2°56.951 6.7 31 13 98400 97
2006-11-23 08:53:09 51°21.313 2°56.97 7.1 25 13 98390 97
2006-11-23 08:53:14 51°21.322 2°56.994 7.4 33 13 98390 97
2006-11-23 08:53:19 51°21.332 2°57.018 6.2 19 13 98400 97
2006-11-23 08:53:24 51°21.341 2°57.042 6 23 13 98400 97
2006-11-23 08:53:29 51°21.351 2°57.067 6.3 29 13 98400 97
2006-11-23 08:53:34 51°21.361 2°57.091 6.7 22 13 98400 97
2006-11-23 08:53:39 51°21.371 2°57.116 7.5 34 13 98400 97
2006-11-23 08:53:44 51°21.382 2°57.139 8.1 29 13 98400 97
2006-11-23 08:53:49 51°21.39 2°57.164 7.2 32 13 98400 97
2006-11-23 08:53:54 51°21.4 2°57.188 7 25 13 98400 97
2006-11-23 08:53:59 51°21.41 2°57.211 6.4 25 13 98400 97
2006-11-23 08:54:04 51°21.418 2°57.235 6.2 29 13 98400 97
2006-11-23 08:54:09 51°21.429 2°57.259 5.8 21 13 98400 97
2006-11-23 08:54:14 51°21.438 2°57.283 7.4 22 13 98400 97
2006-11-23 08:54:19 51°21.447 2°57.307 7.1 32 13 98400 97
2006-11-23 08:54:24 51°21.455 2°57.332 6.5 25 13 98400 97
2006-11-23 08:54:29 51°21.464 2°57.356 7.7 21 13 98400 97
2006-11-23 08:54:34 51°21.472 2°57.381 7.5 25 13 98400 97
2006-11-23 08:54:39 51°21.48 2°57.406 7.1 22 12.9 98390 97
2006-11-23 08:54:44 51°21.489 2°57.43 6.2 24 12.9 98390 97
2006-11-23 08:54:49 51°21.498 2°57.455 7.5 23 12.9 98390 97
2006-11-23 08:54:54 51°21.507 2°57.479 6.5 32 12.9 98390 97
2006-11-23 08:54:59 51°21.515 2°57.504 6.3 25 12.9 98400 97
2006-11-23 08:55:03 51°21.523 2°57.524 5.9 27 12.9 98400 97
2006-11-23 08:55:09 51°21.535 2°57.553 7.1 29 13 98390 97
2006-11-23 08:55:14 51°21.545 2°57.577 6.4 23 13 98390 97
2006-11-23 08:55:19 51°21.553 2°57.601 7.1 28 12.9 98390 97
2006-11-23 08:55:24 51°21.561 2°57.627 6.4 21 12.9 98390 97
2006-11-23 08:55:29 51°21.57 2°57.654 7.4 23 12.9 98400 97
2006-11-23 08:55:34 51°21.578 2°57.678 7.6 25 12.9 98400 97
2006-11-23 08:55:39 51°21.584 2°57.704 7.8 20 12.9 98390 97
2006-11-23 08:55:44 51°21.591 2°57.73 7.5 22 12.9 98390 97
2006-11-23 08:55:49 51°21.598 2°57.757 6.9 19 12.9 98400 97
2006-11-23 08:55:54 51°21.606 2°57.783 7.4 26 12.9 98400 97
2006-11-23 08:55:59 51°21.612 2°57.808 7.7 23 12.9 98400 97
2006-11-23 08:56:04 51°21.62 2°57.833 6.8 21 12.9 98400 97
2006-11-23 08:56:09 51°21.629 2°57.858 5.9 32 12.9 98400 97
2006-11-23 08:56:14 51°21.639 2°57.881 5.7 26 12.9 98400 97
2006-11-23 08:56:19 51°21.648 2°57.904 6.6 30 12.9 98400 97
2006-11-23 08:56:24 51°21.658 2°57.928 5.5 30 12.9 98400 97
2006-11-23 08:56:29 51°21.669 2°57.95 4.5 25 12.9 98400 97
2006-11-23 08:56:34 51°21.678 2°57.974 6.4 25 12.9 98400 97
2006-11-23 08:56:39 51°21.688 2°57.998 5.8 30 12.9 98410 97
2006-11-23 08:56:44 51°21.697 2°58.021 6.4 24 12.9 98410 97
2006-11-23 08:56:49 51°21.706 2°58.044 5.9 26 12.9 98400 97
2006-11-23 08:56:54 51°21.715 2°58.065 5.5 26 12.9 98400 97
2006-11-23 08:56:59 51°21.724 2°58.086 6 27 12.9 98400 97
2006-11-23 08:57:04 51°21.731 2°58.103 7.1 30 12.9 98400 97
2006-11-23 08:57:09 51°21.738 2°58.122 6.2 32 12.9 98400 97
2006-11-23 08:57:14 51°21.745 2°58.137 6.6 37 12.9 98400 97
2006-11-23 08:57:19 51°21.75 2°58.153 6.3 32 12.9 98400 97
2006-11-23 08:57:24 51°21.757 2°58.167 6.3 35 12.9 98400 97
2006-11-23 08:57:29 51°21.762 2°58.181 7 37 12.9 98400 97
2006-11-23 08:57:34 51°21.767 2°58.193 8.2 40 12.9 98400 97
2006-11-23 08:57:39 51°21.771 2°58.205 9 39 12.9 98400 97
2006-11-23 08:57:44 51°21.775 2°58.213 8.4 43 12.9 98400 97
2006-11-23 08:57:49 51°21.779 2°58.221 8.4 25 12.8 98390 97
2006-11-23 08:57:54 51°21.783 2°58.227 8.8 78 12.8 98390 97
2006-11-23 08:57:59 51°21.786 2°58.231 10.1 22 12.8 98390 97
2006-11-23 08:58:04 51°21.789 2°58.234 8.8 59 12.8 98390 97
2006-11-23 08:58:09 51°21.792 2°58.237 9.9 24 12.9 98400 97
2006-11-23 08:58:14 51°21.794 2°58.239 8.5 35 12.9 98400 97
2006-11-23 08:58:19 51°21.796 2°58.243 9.9 27 12.8 98400 97
2006-11-23 08:58:24 51°21.798 2°58.246 9.3 53 12.8 98400 97
2006-11-23 08:58:29 51°21.801 2°58.249 8.6 28 12.9 98400 97
2006-11-23 08:58:34 51°21.806 2°58.253 6 56 12.9 98400 97
2006-11-23 08:58:39 51°21.811 2°58.255 5.1 27 12.8 98390 97
2006-11-23 08:58:44 51°21.817 2°58.256 8.1 54 12.8 98390 97
2006-11-23 08:58:49 51°21.824 2°58.255 9.9 29 12.8 98390 97
2006-11-23 08:58:54 51°21.831 2°58.251 9.3 56 12.8 98390 97
2006-11-23 08:58:59 51°21.837 2°58.247 9.7 268 12.9 98390 97
2006-11-23 08:59:04 51°21.844 2°58.24 7.2 302 12.9 98390 97
2006-11-23 08:59:09 51°21.85 2°58.231 8.1 261 12.9 98400 98
2006-11-23 08:59:14 51°21.855 2°58.221 9.9 310 12.9 98400 98
2006-11-23 08:59:19 51°21.859 2°58.208 4.4 19 12.9 98400 98
2006-11-23 08:59:24 51°21.862 2°58.195 13.3 308 12.9 98400 98
2006-11-23 08:59:29 51°21.863 2°58.182 13.3 24 12.9 98400 97
2006-11-23 08:59:34 51°21.864 2°58.17 12.5 307 12.9 98400 97
2006-11-23 08:59:39 51°21.864 2°58.158 11.7 27 12.9 98380 97
2006-11-23 08:59:44 51°21.863 2°58.147 13.3 305 12.9 98380 97
2006-11-23 08:59:49 51°21.862 2°58.136 13.3 24 12.9 98380 97
2006-11-23 08:59:54 51°21.86 2°58.125 12.3 286 12.9 98380 97
2006-11-23 08:59:59 51°21.858 2°58.115 12.3 24 12.9 98370 97
2006-11-23 09:00:04 51°21.855 2°58.106 11.6 36 12.9 98370 97
2006-11-23 09:00:09 51°21.852 2°58.098 12.7 315 12.9 98370 97
2006-11-23 09:00:14 51°21.849 2°58.091 12.5 305 12.9 98370 97
2006-11-23 09:00:19 51°21.847 2°58.085 12 24 12.9 98360 97
2006-11-23 09:00:24 51°21.845 2°58.079 10 307 12.9 98360 97
2006-11-23 09:00:29 51°21.842 2°58.073 12.3 22 12.9 98380 97
2006-11-23 09:00:34 51°21.84 2°58.067 12 303 12.9 98380 97
2006-11-23 09:00:39 51°21.838 2°58.061 12.5 28 12.9 98370 97
2006-11-23 09:00:43 51°21.836 2°58.055 12.6 305 12.9 98370 97
2006-11-23 09:00:49 51°21.834 2°58.047 12.1 26 12.9 98360 97
2006-11-23 09:00:54 51°21.832 2°58.041 11.5 307 12.9 98360 97
2006-11-23 09:00:59 51°21.83 2°58.034 12.8 25 12.9 98370 97
2006-11-23 09:01:04 51°21.828 2°58.027 13 304 12.9 98370 97
2006-11-23 09:01:09 51°21.826 2°58.021 11.6 25 12.9 98350 97
2006-11-23 09:01:14 51°21.824 2°58.014 12.4 300 12.9 98350 97
2006-11-23 09:01:19 51°21.822 2°58.008 13.2 28 12.8 98370 97
2006-11-23 09:01:24 51°21.819 2°58.001 11.1 308 12.8 98370 97
2006-11-23 09:01:29 51°21.816 2°57.995 12.5 320 12.8 98370 97
2006-11-23 09:01:34 51°21.813 2°57.989 13.2 304 12.8 98370 97
2006-11-23 09:01:39 51°21.81 2°57.984 11.7 323 12.8 98360 97
2006-11-23 09:01:44 51°21.806 2°57.979 12.9 326 12.8 98360 97
2006-11-23 09:01:49 51°21.802 2°57.974 13.9 327 12.9 98380 97
2006-11-23 09:01:54 51°21.799 2°57.97 12.1 283 12.9 98380 97
2006-11-23 09:01:59 51°21.794 2°57.966 12.2 331 12.9 98360 97
2006-11-23 09:02:04 51°21.79 2°57.962 12.1 332 12.9 98360 97
2006-11-23 09:02:09 51°21.786 2°57.959 11.9 335 12.8 98370 97
2006-11-23 09:02:14 51°21.781 2°57.956 12.7 335 12.8 98370 97
2006-11-23 09:02:19 51°21.776 2°57.955 13.3 338 12.9 98370 98
2006-11-23 09:02:24 51°21.771 2°57.954 12.5 341 12.9 98370 98
2006-11-23 09:02:29 51°21.765 2°57.952 13.2 340 12.9 98370 98
2006-11-23 09:02:34 51°21.761 2°57.95 12.1 340 12.9 98370 98
2006-11-23 09:02:39 51°21.755 2°57.949 13.3 341 12.9 98380 98
2006-11-23 09:02:44 51°21.75 2°57.949 12.3 341 12.9 98380 98
2006-11-23 09:02:49 51°21.744 2°57.949 12.5 345 12.9 98390 98
2006-11-23 09:02:54 51°21.739 2°57.949 12.8 346 12.9 98390 98
2006-11-23 09:02:59 51°21.734 2°57.95 12 350 12.9 98380 98
2006-11-23 09:03:04 51°21.728 2°57.953 12.6 354 12.9 98380 98
2006-11-23 09:03:09 51°21.723 2°57.957 13.2 4 12.9 98380 98
2006-11-23 09:03:14 51°21.718 2°57.962 11.7 13 12.9 98380 98
2006-11-23 09:03:19 51°21.714 2°57.968 14.1 15 12.9 98370 98
2006-11-23 09:03:24 51°21.711 2°57.975 10.5 7 12.9 98370 98
2006-11-23 09:03:29 51°21.707 2°57.983 11.3 12 12.9 98360 98
2006-11-23 09:03:34 51°21.705 2°57.992 10.2 16 12.9 98360 98
2006-11-23 09:03:39 51°21.704 2°58.001 10.4 23 12.9 98360 98
2006-11-23 09:03:44 51°21.704 2°58.01 10.4 28 12.9 98360 98
2006-11-23 09:03:49 51°21.705 2°58.02 10.3 29 12.9 98360 98
2006-11-23 09:03:54 51°21.707 2°58.029 9.1 38 12.9 98360 98
2006-11-23 09:03:59 51°21.709 2°58.039 9.7 37 12.9 98380 98
2006-11-23 09:04:04 51°21.713 2°58.047 7.6 39 12.9 98380 98
2006-11-23 09:04:09 51°21.717 2°58.056 7.8 40 12.8 98380 98
2006-11-23 09:04:14 51°21.72 2°58.064 8 38 12.8 98380 98
2006-11-23 09:04:19 51°21.724 2°58.072 8.4 37 12.8 98400 98
2006-11-23 09:04:24 51°21.728 2°58.08 7.6 39 12.8 98400 98
2006-11-23 09:04:29 51°21.732 2°58.089 10.3 39 12.8 98410 98
2006-11-23 09:04:34 51°21.735 2°58.096 8.2 36 12.8 98410 98
2006-11-23 09:04:39 51°21.738 2°58.104 7.8 36 12.8 98410 98
2006-11-23 09:04:44 51°21.74 2°58.111 11.1 37 12.8 98410 98
2006-11-23 09:04:49 51°21.742 2°58.118 10.2 35 12.8 98400 98
2006-11-23 09:04:54 51°21.744 2°58.124 9.1 32 12.8 98400 98
2006-11-23 09:04:59 51°21.744 2°58.129 10.9 33 12.8 98400 98
2006-11-23 09:05:04 51°21.745 2°58.132 9.9 32 12.8 98400 98
2006-11-23 09:05:09 51°21.745 2°58.134 9.4 30 12.8 98390 98
2006-11-23 09:05:14 51°21.746 2°58.135 8.8 31 12.8 98390 98
2006-11-23 09:05:19 51°21.746 2°58.136 9.4 31 12.8 98390 98
2006-11-23 09:05:23 51°21.745 2°58.136 9.8 29 12.8 98390 98
2006-11-23 09:05:29 51°21.745 2°58.136 10.5 29 12.8 98390 98
2006-11-23 09:05:34 51°21.745 2°58.137 9.3 28 12.8 98390 98
2006-11-23 09:05:39 51°21.745 2°58.137 9.9 28 12.8 98390 98
2006-11-23 09:05:44 51°21.745 2°58.137 9.1 27 12.8 98390 98
2006-11-23 09:05:49 51°21.745 2°58.138 10.9 26 12.8 98390 98
2006-11-23 09:05:54 51°21.745 2°58.138 10.6 26 12.8 98390 98
2006-11-23 09:05:59 51°21.745 2°58.138 10.6 23 12.8 98390 98
2006-11-23 09:06:04 51°21.745 2°58.139 10.9 22 12.8 98390 98
2006-11-23 09:06:09 51°21.745 2°58.139 10.1 26 12.7 98390 98
2006-11-23 09:06:14 51°21.744 2°58.139 10.5 22 12.7 98390 98
2006-11-23 09:06:19 51°21.744 2°58.139 10.2 26 12.8 98390 98
2006-11-23 09:06:24 51°21.744 2°58.139 9.7 16 12.8 98390 98
2006-11-23 09:06:29 51°21.744 2°58.139 10.1 24 12.7 98390 98
2006-11-23 09:06:34 51°21.743 2°58.14 9.5 23 12.7 98390 98
2006-11-23 09:06:39 51°21.743 2°58.14 10.6 20 12.7 98390 98
2006-11-23 09:06:44 51°21.743 2°58.14 10 21 12.7 98390 98
2006-11-23 09:06:49 51°21.743 2°58.14 9.4 20 12.7 98390 98
2006-11-23 09:06:54 51°21.742 2°58.141 9.7 17 12.7 98390 98
2006-11-23 09:06:59 51°21.742 2°58.141 11.1 21 12.7 98390 98
2006-11-23 09:07:04 51°21.741 2°58.142 10.3 16 12.7 98390 98
2006-11-23 09:07:09 51°21.741 2°58.142 10.7 16 12.7 98380 98
2006-11-23 09:07:14 51°21.741 2°58.142 11.5 19 12.7 98380 98
2006-11-23 09:07:19 51°21.74 2°58.142 10.3 17 12.7 98390 98
2006-11-23 09:07:23 51°21.74 2°58.142 11 16 12.7 98390 98
2006-11-23 09:07:29 51°21.739 2°58.143 10 16 12.7 98380 98
2006-11-23 09:07:34 51°21.739 2°58.143 9.4 13 12.7 98380 98
2006-11-23 09:07:39 51°21.738 2°58.143 10 16 12.7 98390 98
2006-11-23 09:07:44 51°21.737 2°58.144 10.4 11 12.7 98390 98
2006-11-23 09:07:49 51°21.737 2°58.144 10.3 13 12.7 98380 98
2006-11-23 09:07:54 51°21.736 2°58.144 10.9 10 12.7 98380 98
2006-11-23 09:07:59 51°21.735 2°58.145 9.7 12 12.7 98380 98
2006-11-23 09:08:03 51°21.735 2°58.145 11.5 11 12.7 98380 98
2006-11-23 09:08:09 51°21.734 2°58.145 11.1 10 12.7 98380 98
2006-11-23 09:08:14 51°21.733 2°58.145 10.8 6 12.7 98380 98
2006-11-23 09:08:19 51°21.733 2°58.145 11.1 8 12.7 98370 98
2006-11-23 09:08:24 51°21.732 2°58.145 9.3 10 12.7 98370 98
2006-11-23 09:08:29 51°21.732 2°58.146 9.1 9 12.7 98380 98
2006-11-23 09:08:34 51°21.731 2°58.146 10 9 12.7 98380 98
2006-11-23 09:08:39 51°21.73 2°58.146 8.8 7 12.7 98380 98
2006-11-23 09:08:44 51°21.73 2°58.146 10.6 8 12.7 98380 98
2006-11-23 09:08:49 51°21.729 2°58.146 9.2 9 12.7 98380 98
2006-11-23 09:08:54 51°21.729 2°58.146 11.9 8 12.7 98380 98
2006-11-23 09:08:59 51°21.729 2°58.146 9.4 7 12.7 98380 98
2006-11-23 09:09:04 51°21.728 2°58.147 8.8 7 12.7 98380 98
2006-11-23 09:09:09 51°21.727 2°58.147 10.4 8 12.7 98380 98
2006-11-23 09:09:14 51°21.727 2°58.147 11.5 9 12.7 98380 98
2006-11-23 09:09:19 51°21.727 2°58.147 10 8 12.7 98370 98
2006-11-23 09:09:24 51°21.726 2°58.147 9.7 9 12.7 98370 98
2006-11-23 09:09:29 51°21.726 2°58.147 11.1 10 12.7 98380 98
2006-11-23 09:09:34 51°21.726 2°58.147 10.6 8 12.7 98380 98
2006-11-23 09:09:39 51°21.725 2°58.147 9.4 7 12.7 98370 98
2006-11-23 09:09:44 51°21.725 2°58.147 8.4 7 12.7 98370 98
2006-11-23 09:09:49 51°21.724 2°58.147 10.8 9 12.7 98370 98
2006-11-23 09:09:54 51°21.724 2°58.148 10.9 9 12.7 98370 98
2006-11-23 09:09:59 51°21.723 2°58.147 10.7 9 12.7 98380 98
2006-11-23 09:10:04 51°21.723 2°58.147 8.6 5 12.7 98380 98
2006-11-23 09:10:09 51°21.723 2°58.147 10.6 9 12.7 98370 98
2006-11-23 09:10:14 51°21.723 2°58.147 10.3 9 12.7 98370 98
2006-11-23 09:10:19 51°21.722 2°58.147 9.6 6 12.7 98380 98
2006-11-23 09:10:24 51°21.722 2°58.147 10.9 9 12.7 98380 98
2006-11-23 09:10:29 51°21.721 2°58.147 10.2 6 12.7 98370 98
2006-11-23 09:10:34 51°21.721 2°58.147 10.7 8 12.7 98370 98
2006-11-23 09:10:39 51°21.721 2°58.147 9.1 7 12.7 98380 98
2006-11-23 09:10:44 51°21.721 2°58.147 9.2 5 12.7 98380 98
2006-11-23 09:10:49 51°21.721 2°58.147 8.6 8 12.7 98380 98
2006-11-23 09:10:54 51°21.721 2°58.147 9.7 6 12.7 98380 98
2006-11-23 09:10:59 51°21.72 2°58.147 10.4 7 12.7 98380 98
2006-11-23 09:11:04 51°21.72 2°58.147 11.4 11 12.7 98380 98
2006-11-23 09:11:09 51°21.72 2°58.147 9.5 5 12.7 98370 99
2006-11-23 09:11:14 51°21.719 2°58.146 9.4 7 12.7 98370 99
2006-11-23 09:11:19 51°21.719 2°58.146 9.4 7 12.7 98380 99
2006-11-23 09:11:24 51°21.719 2°58.146 7.4 5 12.7 98380 99
2006-11-23 09:11:29 51°21.719 2°58.146 8.6 7 12.7 98380 99
2006-11-23 09:11:34 51°21.718 2°58.146 7.2 4 12.7 98380 99
2006-11-23 09:11:39 51°21.718 2°58.146 10 8 12.7 98380 99
2006-11-23 09:11:44 51°21.718 2°58.146 11.5 6 12.7 98380 99
2006-11-23 09:11:49 51°21.718 2°58.146 8.9 7 12.6 98370 99
2006-11-23 09:11:54 51°21.718 2°58.146 11 7 12.6 98370 99
2006-11-23 09:11:59 51°21.718 2°58.146 9.7 3 12.6 98380 99
2006-11-23 09:12:04 51°21.717 2°58.146 9.2 5 12.6 98380 99
2006-11-23 09:12:09 51°21.717 2°58.146 8.8 7 12.6 98380 99
2006-11-23 09:12:14 51°21.717 2°58.145 9.5 6 12.6 98380 99
2006-11-23 09:12:19 51°21.717 2°58.145 9.9 8 12.6 98380 99
2006-11-23 09:12:24 51°21.716 2°58.145 9.8 7 12.6 98380 99
2006-11-23 09:12:29 51°21.716 2°58.144 12.2 7 12.6 98380 99
2006-11-23 09:12:34 51°21.716 2°58.144 9.2 3 12.6 98380 99
2006-11-23 09:12:39 51°21.716 2°58.144 9.5 5 12.6 98380 99
2006-11-23 09:12:44 51°21.716 2°58.144 11.4 11 12.6 98380 99
2006-11-23 09:12:49 51°21.715 2°58.143 10.4 10 12.6 98370 99
2006-11-23 09:12:54 51°21.715 2°58.143 8.7 7 12.6 98370 99
2006-11-23 09:12:59 51°21.716 2°58.143 10.5 8 12.6 98370 99
2006-11-23 09:13:04 51°21.716 2°58.142 11.7 8 12.6 98370 99
2006-11-23 09:13:09 51°21.715 2°58.142 9.6 8 12.7 98380 99
2006-11-23 09:13:14 51°21.716 2°58.142 11.3 8 12.7 98380 99
2006-11-23 09:13:19 51°21.715 2°58.142 12.8 12 12.7 98380 99
2006-11-23 09:13:24 51°21.715 2°58.142 12.5 10 12.7 98380 99
2006-11-23 09:13:29 51°21.715 2°58.142 11.3 9 12.7 98380 99
2006-11-23 09:13:34 51°21.715 2°58.141 9.9 10 12.7 98380 99
2006-11-23 09:13:39 51°21.715 2°58.141 11.4 9 12.7 98370 99
2006-11-23 09:13:43 51°21.715 2°58.141 11.6 9 12.7 98370 99
2006-11-23 09:13:49 51°21.714 2°58.14 12.6 10 12.7 98380 99
2006-11-23 09:13:54 51°21.714 2°58.14 13.9 8 12.7 98380 99
2006-11-23 09:13:59 51°21.714 2°58.14 11.3 7 12.7 98380 99
2006-11-23 09:14:04 51°21.714 2°58.14 12.4 8 12.7 98380 99
2006-11-23 09:14:09 51°21.714 2°58.14 10.9 8 12.7 98370 99
2006-11-23 09:14:14 51°21.714 2°58.14 11.4 7 12.7 98370 99
2006-11-23 09:14:19 51°21.714 2°58.14 11.5 9 12.7 98370 99
2006-11-23 09:14:24 51°21.713 2°58.14 12 10 12.7 98370 99
2006-11-23 09:14:29 51°21.714 2°58.14 9.4 7 12.7 98370 99
2006-11-23 09:14:34 51°21.714 2°58.139 11.6 12 12.7 98370 99
2006-11-23 09:14:39 51°21.713 2°58.139 10.3 9 12.7 98380 99
2006-11-23 09:14:44 51°21.713 2°58.139 10.5 12 12.7 98380 99
2006-11-23 09:14:49 51°21.713 2°58.139 9.8 9 12.7 98370 99
2006-11-23 09:14:55 51°21.712 2°58.139 10.2 10 12.7 98370 99
2006-11-23 09:14:59 51°21.712 2°58.139 10.8 10 12.7 98390 99
2006-11-23 09:15:04 51°21.712 2°58.138 10 11 12.7 98390 99
2006-11-23 09:15:09 51°21.712 2°58.139 10.9 12 12.7 98380 99
2006-11-23 09:15:14 51°21.712 2°58.138 10.4 13 12.7 98380 99
2006-11-23 09:15:19 51°21.711 2°58.138 10.2 13 12.7 98380 99
2006-11-23 09:15:24 51°21.711 2°58.138 9.6 12 12.7 98380 99
2006-11-23 09:15:29 51°21.711 2°58.138 12.6 11 12.7 98380 99
2006-11-23 09:15:34 51°21.711 2°58.138 10.5 8 12.7 98380 99
2006-11-23 09:15:39 51°21.711 2°58.137 10.6 10 12.7 98380 99
2006-11-23 09:15:44 51°21.711 2°58.137 10.2 10 12.7 98380 99
2006-11-23 09:15:49 51°21.711 2°58.136 9.2 9 12.7 98380 99
2006-11-23 09:15:54 51°21.711 2°58.136 11.3 13 12.7 98380 99
2006-11-23 09:15:59 51°21.71 2°58.136 10.7 11 12.7 98380 99
2006-11-23 09:16:04 51°21.71 2°58.136 11 11 12.7 98380 99
2006-11-23 09:16:09 51°21.71 2°58.136 11.8 11 12.7 98370 99
2006-11-23 09:16:14 51°21.709 2°58.135 10.8 12 12.7 98370 99
2006-11-23 09:16:19 51°21.71 2°58.135 9.1 9 12.7 98390 99
2006-11-23 09:16:24 51°21.709 2°58.135 10.2 13 12.7 98390 99
2006-11-23 09:16:29 51°21.709 2°58.135 12.2 11 12.7 98380 99
2006-11-23 09:16:34 51°21.709 2°58.135 11.5 11 12.7 98380 99
2006-11-23 09:16:39 51°21.709 2°58.134 11 14 12.7 98380 99
2006-11-23 09:16:44 51°21.709 2°58.134 11.3 11 12.7 98380 99
2006-11-23 09:16:49 51°21.708 2°58.134 10.8 11 12.7 98380 99
2006-11-23 09:16:54 51°21.708 2°58.134 11.9 14 12.7 98380 99
2006-11-23 09:16:59 51°21.708 2°58.134 10.8 13 12.7 98380 99
2006-11-23 09:17:04 51°21.708 2°58.134 10.2 8 12.7 98380 99
2006-11-23 09:17:09 51°21.708 2°58.134 11.2 8 12.7 98390 99
2006-11-23 09:17:14 51°21.708 2°58.134 10.4 11 12.7 98390 99
2006-11-23 09:17:19 51°21.708 2°58.133 11 13 12.7 98380 99
2006-11-23 09:17:24 51°21.707 2°58.133 11.2 9 12.7 98380 99
2006-11-23 09:17:29 51°21.707 2°58.133 12.4 12 12.7 98380 99
2006-11-23 09:17:34 51°21.707 2°58.133 10.6 9 12.7 98380 99
2006-11-23 09:17:39 51°21.707 2°58.133 11.6 16 12.6 98380 99
2006-11-23 09:17:44 51°21.707 2°58.133 11.3 9 12.6 98380 99
2006-11-23 09:17:49 51°21.707 2°58.133 10.6 9 12.6 98390 99
2006-11-23 09:17:54 51°21.707 2°58.132 10.9 13 12.6 98390 99
2006-11-23 09:17:59 51°21.706 2°58.132 11.5 10 12.6 98380 99
2006-11-23 09:18:03 51°21.706 2°58.133 10.5 12 12.6 98380 99
2006-11-23 09:18:09 51°21.706 2°58.132 10.6 8 12.7 98380 99
2006-11-23 09:18:14 51°21.706 2°58.132 11.5 12 12.7 98380 99
2006-11-23 09:18:19 51°21.705 2°58.132 10.6 10 12.7 98380 99
2006-11-23 09:18:24 51°21.705 2°58.132 11.4 11 12.7 98380 99
2006-11-23 09:18:29 51°21.705 2°58.131 10.6 11 12.7 98380 99
2006-11-23 09:18:34 51°21.705 2°58.131 10.9 12 12.7 98380 99
2006-11-23 09:18:39 51°21.705 2°58.131 10.9 9 12.7 98390 99
2006-11-23 09:18:44 51°21.705 2°58.131 10.9 10 12.7 98390 99
2006-11-23 09:18:49 51°21.705 2°58.13 10.2 10 12.7 98380 99
2006-11-23 09:18:54 51°21.704 2°58.13 11.5 11 12.7 98380 99
2006-11-23 09:18:59 51°21.704 2°58.13 11.3 10 12.6 98390 99
2006-11-23 09:19:04 51°21.703 2°58.13 10.9 10 12.6 98390 99
2006-11-23 09:19:09 51°21.704 2°58.13 12.1 11 12.7 98390 99
2006-11-23 09:19:14 51°21.703 2°58.13 11.3 10 12.7 98390 99
2006-11-23 09:19:19 51°21.703 2°58.13 10.5 9 12.6 98380 99
2006-11-23 09:19:24 51°21.703 2°58.129 8.6 11 12.6 98380 99
2006-11-23 09:19:29 51°21.703 2°58.129 9.4 11 12.7 98380 99
2006-11-23 09:19:34 51°21.703 2°58.129 10.3 11 12.7 98380 99
2006-11-23 09:19:39 51°21.703 2°58.129 11.2 8 12.6 98380 99
2006-11-23 09:19:44 51°21.703 2°58.128 11 12 12.6 98380 99
2006-11-23 09:19:49 51°21.703 2°58.128 10.1 11 12.6 98380 99
2006-11-23 09:19:54 51°21.703 2°58.128 9 9 12.6 98380 99
2006-11-23 09:19:59 51°21.702 2°58.127 9.8 8 12.6 98380 99
2006-11-23 09:20:04 51°21.702 2°58.126 11.9 11 12.6 98380 99
2006-11-23 09:20:09 51°21.702 2°58.126 9.2 6 12.6 98380 99
2006-11-23 09:20:14 51°21.702 2°58.126 9.7 10 12.6 98380 99
2006-11-23 09:20:19 51°21.702 2°58.126 9.4 12 12.6 98390 99
2006-11-23 09:20:24 51°21.702 2°58.126 10.6 10 12.6 98390 99
2006-11-23 09:20:29 51°21.702 2°58.125 10.1 10 12.6 98380 99
2006-11-23 09:20:34 51°21.701 2°58.125 10.9 10 12.6 98380 99
2006-11-23 09:20:39 51°21.701 2°58.125 10.8 9 12.6 98380 99
2006-11-23 09:20:44 51°21.701 2°58.125 10.5 12 12.6 98380 99
2006-11-23 09:20:49 51°21.701 2°58.125 11.9 10 12.6 98380 99
2006-11-23 09:20:54 51°21.701 2°58.124 11.7 12 12.6 98380 99
2006-11-23 09:20:59 51°21.701 2°58.124 9.8 8 12.6 98380 99
2006-11-23 09:21:04 51°21.701 2°58.124 9.6 10 12.6 98380 99
2006-11-23 09:21:09 51°21.7 2°58.124 10.3 8 12.6 98380 99
2006-11-23 09:21:14 51°21.7 2°58.123 12.5 12 12.6 98380 99
2006-11-23 09:21:19 51°21.7 2°58.123 11.5 8 12.6 98380 99
2006-11-23 09:21:24 51°21.7 2°58.122 11.1 8 12.6 98380 99
2006-11-23 09:21:29 51°21.7 2°58.122 10.5 8 12.6 98390 99
2006-11-23 09:21:34 51°21.7 2°58.122 10.2 10 12.6 98390 99
2006-11-23 09:21:39 51°21.7 2°58.122 11.3 10 12.6 98390 99
2006-11-23 09:21:43 51°21.7 2°58.122 10.2 11 12.6 98390 99
2006-11-23 09:21:49 51°21.7 2°58.121 8.8 16 12.6 98390 99
2006-11-23 09:21:54 51°21.7 2°58.121 10.3 12 12.6 98390 99
2006-11-23 09:21:59 51°21.699 2°58.121 11.4 8 12.6 98380 99
2006-11-23 09:22:04 51°21.7 2°58.12 10.5 18 12.6 98380 99
2006-11-23 09:22:09 51°21.7 2°58.12 10 11 12.6 98380 99
2006-11-23 09:22:14 51°21.699 2°58.119 10.7 13 12.6 98380 99
2006-11-23 09:22:19 51°21.699 2°58.119 10.8 13 12.6 98390 99
2006-11-23 09:22:24 51°21.699 2°58.119 11.9 9 12.6 98390 99
2006-11-23 09:22:29 51°21.699 2°58.118 10.5 12 12.6 98380 99
2006-11-23 09:22:34 51°21.699 2°58.118 11.8 14 12.6 98380 99
2006-11-23 09:22:39 51°21.699 2°58.118 10 13 12.6 98380 99
2006-11-23 09:22:44 51°21.699 2°58.118 12.2 16 12.6 98380 99
2006-11-23 09:22:49 51°21.699 2°58.117 11.8 12 12.6 98390 99
2006-11-23 09:22:54 51°21.699 2°58.118 12.8 13 12.6 98390 99
2006-11-23 09:22:59 51°21.699 2°58.117 11.8 17 12.6 98390 99
2006-11-23 09:23:04 51°21.699 2°58.117 12.4 11 12.6 98390 99
2006-11-23 09:23:09 51°21.699 2°58.117 11.9 11 12.6 98390 99
2006-11-23 09:23:14 51°21.699 2°58.117 12.3 11 12.6 98390 99
2006-11-23 09:23:19 51°21.698 2°58.117 11.2 12 12.6 98390 99
2006-11-23 09:23:24 51°21.698 2°58.116 12.4 11 12.6 98390 99
2006-11-23 09:23:29 51°21.698 2°58.116 10.8 13 12.6 98390 100
2006-11-23 09:23:34 51°21.698 2°58.116 12.1 9 12.6 98390 100
2006-11-23 09:23:39 51°21.698 2°58.116 9.5 13 12.6 98380 100
2006-11-23 09:23:44 51°21.698 2°58.115 10.3 14 12.6 98380 100
2006-11-23 09:23:49 51°21.697 2°58.116 9.7 13 12.6 98380 100
2006-11-23 09:23:54 51°21.697 2°58.116 11.6 12 12.6 98380 100
2006-11-23 09:23:59 51°21.697 2°58.115 10.7 12 12.6 98380 100
2006-11-23 09:24:04 51°21.697 2°58.115 10.9 12 12.6 98380 100
2006-11-23 09:24:09 51°21.697 2°58.115 11.8 10 12.6 98390 100
2006-11-23 09:24:14 51°21.697 2°58.115 12.1 14 12.6 98390 100
2006-11-23 09:24:19 51°21.696 2°58.115 12.2 13 12.6 98390 100
2006-11-23 09:24:24 51°21.696 2°58.114 10.8 14 12.6 98390 100
2006-11-23 09:24:29 51°21.696 2°58.114 12.7 11 12.6 98390 100
2006-11-23 09:24:34 51°21.696 2°58.114 11.4 14 12.6 98390 100
2006-11-23 09:24:39 51°21.696 2°58.114 10.1 12 12.6 98390 100